sensor_id;sensor_type;location;lat;lon;timestamp;temperature;humidity
46458;DHT22;32155;54.076;12.092;2023-08-20T00:02:14;22.50;99.90
46458;DHT22;32155;54.076;12.092;2023-08-20T00:04:40;22.50;99.90
46458;DHT22;32155;54.076;12.092;2023-08-20T00:07:07;22.50;99.90
46458;DHT22;32155;54.076;12.092;2023-08-20T00:09:37;22.50;99.90
46458;DHT22;32155;54.076;12.092;2023-08-20T00:12:03;22.60;99.90
46458;DHT22;32155;54.076;12.092;2023-08-20T00:17:14;22.60;99.90
46458;DHT22;32155;54.076;12.092;2023-08-20T00:19:40;22.60;99.90
46458;DHT22;32155;54.076;12.092;2023-08-20T00:22:06;22.60;99.90
46458;DHT22;32155;54.076;12.092;2023-08-20T00:24:31;22.50;99.90
46458;DHT22;32155;54.076;12.092;2023-08-20T00:26:57;22.60;99.90
46458;DHT22;32155;54.076;12.092;2023-08-20T00:29:22;22.60;99.90
46458;DHT22;32155;54.076;12.092;2023-08-20T00:31:48;22.50;99.90
46458;DHT22;32155;54.076;12.092;2023-08-20T00:34:13;22.60;99.90
46458;DHT22;32155;54.076;12.092;2023-08-20T00:36:39;22.60;99.90
46458;DHT22;32155;54.076;12.092;2023-08-20T00:39:04;22.60;99.90
46458;DHT22;32155;54.076;12.092;2023-08-20T00:41:30;22.60;99.90
46458;DHT22;32155;54.076;12.092;2023-08-20T00:43:58;22.60;99.90
46458;DHT22;32155;54.076;12.092;2023-08-20T00:46:23;22.60;99.90
46458;DHT22;32155;54.076;12.092;2023-08-20T00:48:49;22.60;99.90
46458;DHT22;32155;54.076;12.092;2023-08-20T00:51:17;22.50;99.90
46458;DHT22;32155;54.076;12.092;2023-08-20T01:40:20;21.40;99.90
46458;DHT22;32155;54.076;12.092;2023-08-20T01:42:45;21.40;99.90
46458;DHT22;32155;54.076;12.092;2023-08-20T01:45:16;21.30;99.90
46458;DHT22;32155;54.076;12.092;2023-08-20T01:47:43;21.30;99.90
46458;DHT22;32155;54.076;12.092;2023-08-20T01:50:09;21.40;99.90
46458;DHT22;32155;54.076;12.092;2023-08-20T01:52:34;21.30;99.90
46458;DHT22;32155;54.076;12.092;2023-08-20T01:55:03;21.30;99.90
46458;DHT22;32155;54.076;12.092;2023-08-20T01:57:29;21.30;99.90
46458;DHT22;32155;54.076;12.092;2023-08-20T01:59:57;21.30;99.90
46458;DHT22;32155;54.076;12.092;2023-08-20T02:02:27;21.20;99.90
46458;DHT22;32155;54.076;12.092;2023-08-20T02:04:55;21.20;99.90
46458;DHT22;32155;54.076;12.092;2023-08-20T02:07:21;21.30;99.90
46458;DHT22;32155;54.076;12.092;2023-08-20T02:09:46;21.40;99.90
46458;DHT22;32155;54.076;12.092;2023-08-20T02:12:12;21.40;99.90
46458;DHT22;32155;54.076;12.092;2023-08-20T02:14:37;21.50;99.90
46458;DHT22;32155;54.076;12.092;2023-08-20T02:17:03;21.60;99.90
46458;DHT22;32155;54.076;12.092;2023-08-20T02:19:29;21.70;99.90
46458;DHT22;32155;54.076;12.092;2023-08-20T02:21:55;21.70;99.90
46458;DHT22;32155;54.076;12.092;2023-08-20T02:24:20;21.70;99.90
46458;DHT22;32155;54.076;12.092;2023-08-20T02:26:46;21.70;99.90
46458;DHT22;32155;54.076;12.092;2023-08-20T02:29:13;21.70;99.90
46458;DHT22;32155;54.076;12.092;2023-08-20T02:31:39;21.80;99.90
46458;DHT22;32155;54.076;12.092;2023-08-20T02:34:04;21.80;99.90
46458;DHT22;32155;54.076;12.092;2023-08-20T02:36:32;21.80;99.90
46458;DHT22;32155;54.076;12.092;2023-08-20T02:38:58;21.80;99.90
46458;DHT22;32155;54.076;12.092;2023-08-20T02:41:23;21.80;99.90
46458;DHT22;32155;54.076;12.092;2023-08-20T02:43:49;21.80;99.90
46458;DHT22;32155;54.076;12.092;2023-08-20T02:46:14;21.80;99.90
46458;DHT22;32155;54.076;12.092;2023-08-20T02:48:40;21.70;99.90
46458;DHT22;32155;54.076;12.092;2023-08-20T02:51:05;21.60;99.90
46458;DHT22;32155;54.076;12.092;2023-08-20T02:53:32;21.60;99.90
46458;DHT22;32155;54.076;12.092;2023-08-20T02:55:57;21.50;99.90
46458;DHT22;32155;54.076;12.092;2023-08-20T02:58:23;21.50;99.90
46458;DHT22;32155;54.076;12.092;2023-08-20T03:00:48;21.40;99.90
46458;DHT22;32155;54.076;12.092;2023-08-20T03:03:14;21.40;99.90
46458;DHT22;32155;54.076;12.092;2023-08-20T03:05:39;21.30;99.90
46458;DHT22;32155;54.076;12.092;2023-08-20T03:08:05;21.20;99.90
46458;DHT22;32155;54.076;12.092;2023-08-20T03:10:31;21.20;99.90
46458;DHT22;32155;54.076;12.092;2023-08-20T03:13:02;21.20;99.90
46458;DHT22;32155;54.076;12.092;2023-08-20T03:15:29;21.20;99.90
46458;DHT22;32155;54.076;12.092;2023-08-20T03:17:55;21.20;99.90
46458;DHT22;32155;54.076;12.092;2023-08-20T03:20:20;21.10;99.90
46458;DHT22;32155;54.076;12.092;2023-08-20T03:22:48;21.10;99.90
46458;DHT22;32155;54.076;12.092;2023-08-20T03:25:16;21.00;99.90
46458;DHT22;32155;54.076;12.092;2023-08-20T03:27:44;21.00;99.90
46458;DHT22;32155;54.076;12.092;2023-08-20T03:30:10;20.90;99.90
46458;DHT22;32155;54.076;12.092;2023-08-20T03:32:35;21.00;99.90
46458;DHT22;32155;54.076;12.092;2023-08-20T03:35:01;20.90;99.90
46458;DHT22;32155;54.076;12.092;2023-08-20T03:37:27;20.90;99.90
46458;DHT22;32155;54.076;12.092;2023-08-20T03:39:52;21.00;99.90
46458;DHT22;32155;54.076;12.092;2023-08-20T03:42:18;20.90;99.90
46458;DHT22;32155;54.076;12.092;2023-08-20T03:44:43;20.90;99.90
46458;DHT22;32155;54.076;12.092;2023-08-20T03:47:09;20.80;99.90
46458;DHT22;32155;54.076;12.092;2023-08-20T03:49:34;20.90;99.90
46458;DHT22;32155;54.076;12.092;2023-08-20T03:52:02;20.90;99.90
46458;DHT22;32155;54.076;12.092;2023-08-20T03:54:28;20.90;99.90
46458;DHT22;32155;54.076;12.092;2023-08-20T03:56:54;20.90;99.90
46458;DHT22;32155;54.076;12.092;2023-08-20T03:59:22;20.90;99.90
46458;DHT22;32155;54.076;12.092;2023-08-20T04:01:50;20.90;99.90
46458;DHT22;32155;54.076;12.092;2023-08-20T04:04:19;20.90;99.90
46458;DHT22;32155;54.076;12.092;2023-08-20T04:06:46;20.80;99.90
46458;DHT22;32155;54.076;12.092;2023-08-20T04:09:11;20.80;99.90
46458;DHT22;32155;54.076;12.092;2023-08-20T04:11:39;20.80;99.90
46458;DHT22;32155;54.076;12.092;2023-08-20T04:14:07;20.80;99.90
46458;DHT22;32155;54.076;12.092;2023-08-20T04:16:33;20.80;99.90
46458;DHT22;32155;54.076;12.092;2023-08-20T04:18:58;20.80;99.90
46458;DHT22;32155;54.076;12.092;2023-08-20T04:21:26;20.80;99.90
46458;DHT22;32155;54.076;12.092;2023-08-20T04:23:52;20.80;99.90
46458;DHT22;32155;54.076;12.092;2023-08-20T04:26:17;20.80;99.90
46458;DHT22;32155;54.076;12.092;2023-08-20T04:28:45;20.80;99.90
46458;DHT22;32155;54.076;12.092;2023-08-20T04:31:11;20.70;99.90
46458;DHT22;32155;54.076;12.092;2023-08-20T04:33:36;20.80;99.90
46458;DHT22;32155;54.076;12.092;2023-08-20T04:36:02;20.80;99.90
46458;DHT22;32155;54.076;12.092;2023-08-20T04:38:29;20.80;99.90
46458;DHT22;32155;54.076;12.092;2023-08-20T04:40:55;20.70;99.90
46458;DHT22;32155;54.076;12.092;2023-08-20T04:43:20;20.80;99.90
46458;DHT22;32155;54.076;12.092;2023-08-20T04:45:46;20.80;99.90
46458;DHT22;32155;54.076;12.092;2023-08-20T04:48:12;20.80;99.90
46458;DHT22;32155;54.076;12.092;2023-08-20T04:50:39;20.80;99.90
46458;DHT22;32155;54.076;12.092;2023-08-20T04:53:07;20.80;99.90
46458;DHT22;32155;54.076;12.092;2023-08-20T04:55:33;20.80;99.90
46458;DHT22;32155;54.076;12.092;2023-08-20T04:57:58;20.70;99.90
46458;DHT22;32155;54.076;12.092;2023-08-20T05:00:24;20.70;99.90
46458;DHT22;32155;54.076;12.092;2023-08-20T05:02:52;20.70;99.90
46458;DHT22;32155;54.076;12.092;2023-08-20T05:05:18;20.80;99.90
46458;DHT22;32155;54.076;12.092;2023-08-20T05:07:43;20.70;99.90
46458;DHT22;32155;54.076;12.092;2023-08-20T05:10:09;20.80;99.90
46458;DHT22;32155;54.076;12.092;2023-08-20T05:12:35;20.80;99.90
46458;DHT22;32155;54.076;12.092;2023-08-20T05:15:01;20.80;99.90
46458;DHT22;32155;54.076;12.092;2023-08-20T05:17:27;20.80;99.90
46458;DHT22;32155;54.076;12.092;2023-08-20T05:19:52;20.90;99.90
46458;DHT22;32155;54.076;12.092;2023-08-20T05:22:18;20.90;99.90
46458;DHT22;32155;54.076;12.092;2023-08-20T05:24:45;20.90;99.90
46458;DHT22;32155;54.076;12.092;2023-08-20T05:29:39;21.00;99.90
46458;DHT22;32155;54.076;12.092;2023-08-20T05:32:05;21.10;99.90
46458;DHT22;32155;54.076;12.092;2023-08-20T05:34:32;21.00;99.90
46458;DHT22;32155;54.076;12.092;2023-08-20T05:37:00;21.00;99.90
46458;DHT22;32155;54.076;12.092;2023-08-20T05:39:26;20.90;99.90
46458;DHT22;32155;54.076;12.092;2023-08-20T05:41:52;21.00;99.90
46458;DHT22;32155;54.076;12.092;2023-08-20T05:44:21;21.00;99.90
46458;DHT22;32155;54.076;12.092;2023-08-20T05:46:49;21.00;99.90
46458;DHT22;32155;54.076;12.092;2023-08-20T05:49:14;21.10;99.90
46458;DHT22;32155;54.076;12.092;2023-08-20T05:51:43;21.10;99.90
46458;DHT22;32155;54.076;12.092;2023-08-20T05:54:09;21.10;99.90
46458;DHT22;32155;54.076;12.092;2023-08-20T05:56:41;21.10;99.90
46458;DHT22;32155;54.076;12.092;2023-08-20T05:59:06;21.10;99.90
46458;DHT22;32155;54.076;12.092;2023-08-20T06:01:32;21.30;99.90
46458;DHT22;32155;54.076;12.092;2023-08-20T06:04:00;21.20;99.90
46458;DHT22;32155;54.076;12.092;2023-08-20T06:06:26;21.30;99.90
46458;DHT22;32155;54.076;12.092;2023-08-20T06:08:54;21.30;99.90
46458;DHT22;32155;54.076;12.092;2023-08-20T06:11:23;21.20;99.90
46458;DHT22;32155;54.076;12.092;2023-08-20T06:13:48;21.30;99.90
46458;DHT22;32155;54.076;12.092;2023-08-20T06:16:16;21.20;99.90
46458;DHT22;32155;54.076;12.092;2023-08-20T06:18:44;21.10;99.90
46458;DHT22;32155;54.076;12.092;2023-08-20T06:21:12;21.10;99.90
46458;DHT22;32155;54.076;12.092;2023-08-20T06:23:38;21.20;99.90
46458;DHT22;32155;54.076;12.092;2023-08-20T06:26:03;21.20;99.90
46458;DHT22;32155;54.076;12.092;2023-08-20T06:28:29;21.20;99.90
46458;DHT22;32155;54.076;12.092;2023-08-20T06:31:06;21.30;99.90
46458;DHT22;32155;54.076;12.092;2023-08-20T06:33:31;21.30;99.90
46458;DHT22;32155;54.076;12.092;2023-08-20T06:35:57;21.50;99.90
46458;DHT22;32155;54.076;12.092;2023-08-20T06:38:22;21.70;99.90
46458;DHT22;32155;54.076;12.092;2023-08-20T06:40:48;21.80;99.90
46458;DHT22;32155;54.076;12.092;2023-08-20T06:43:13;21.90;99.90
46458;DHT22;32155;54.076;12.092;2023-08-20T06:45:39;21.90;99.90
46458;DHT22;32155;54.076;12.092;2023-08-20T06:51:06;22.00;99.90
46458;DHT22;32155;54.076;12.092;2023-08-20T06:53:32;22.20;99.90
46458;DHT22;32155;54.076;12.092;2023-08-20T06:55:58;22.30;99.90
46458;DHT22;32155;54.076;12.092;2023-08-20T07:01:11;22.60;99.90
46458;DHT22;32155;54.076;12.092;2023-08-20T07:03:38;22.70;99.90
46458;DHT22;32155;54.076;12.092;2023-08-20T07:06:04;22.80;99.90
46458;DHT22;32155;54.076;12.092;2023-08-20T07:08:30;22.90;99.90
46458;DHT22;32155;54.076;12.092;2023-08-20T07:10:56;23.00;99.90
46458;DHT22;32155;54.076;12.092;2023-08-20T07:16:21;23.20;99.90
46458;DHT22;32155;54.076;12.092;2023-08-20T07:21:15;23.40;99.90
46458;DHT22;32155;54.076;12.092;2023-08-20T07:26:13;23.90;99.90
46458;DHT22;32155;54.076;12.092;2023-08-20T07:28:39;24.30;99.90
46458;DHT22;32155;54.076;12.092;2023-08-20T07:31:27;24.50;99.90
46458;DHT22;32155;54.076;12.092;2023-08-20T07:33:53;25.00;99.90
46458;DHT22;32155;54.076;12.092;2023-08-20T07:36:20;25.30;99.90
46458;DHT22;32155;54.076;12.092;2023-08-20T07:38:49;25.70;99.90
46458;DHT22;32155;54.076;12.092;2023-08-20T07:41:14;25.00;99.90
46458;DHT22;32155;54.076;12.092;2023-08-20T07:43:40;25.10;99.90
46458;DHT22;32155;54.076;12.092;2023-08-20T07:48:52;24.60;99.90
46458;DHT22;32155;54.076;12.092;2023-08-20T07:51:17;24.80;99.90
46458;DHT22;32155;54.076;12.092;2023-08-20T07:53:43;24.90;99.90
46458;DHT22;32155;54.076;12.092;2023-08-20T07:56:08;24.90;99.90
46458;DHT22;32155;54.076;12.092;2023-08-20T07:58:34;24.70;99.90
46458;DHT22;32155;54.076;12.092;2023-08-20T08:01:00;24.70;99.90
46458;DHT22;32155;54.076;12.092;2023-08-20T08:03:25;24.60;99.90
46458;DHT22;32155;54.076;12.092;2023-08-20T08:05:56;24.20;99.90
46458;DHT22;32155;54.076;12.092;2023-08-20T08:08:22;24.30;99.90
46458;DHT22;32155;54.076;12.092;2023-08-20T08:14:03;26.50;99.90
46458;DHT22;32155;54.076;12.092;2023-08-20T08:16:35;27.40;99.90
46458;DHT22;32155;54.076;12.092;2023-08-20T08:19:09;27.10;99.90
46458;DHT22;32155;54.076;12.092;2023-08-20T08:24:21;27.00;99.90
46458;DHT22;32155;54.076;12.092;2023-08-20T08:29:17;26.70;99.90
46458;DHT22;32155;54.076;12.092;2023-08-20T08:31:43;26.80;99.90
46458;DHT22;32155;54.076;12.092;2023-08-20T08:34:09;27.50;99.90
46458;DHT22;32155;54.076;12.092;2023-08-20T08:36:35;28.70;99.90
46458;DHT22;32155;54.076;12.092;2023-08-20T08:39:04;31.30;99.90
46458;DHT22;32155;54.076;12.092;2023-08-20T08:49:48;28.20;99.90
46458;DHT22;32155;54.076;12.092;2023-08-20T08:52:13;28.60;99.90
46458;DHT22;32155;54.076;12.092;2023-08-20T08:54:39;30.70;99.90
46458;DHT22;32155;54.076;12.092;2023-08-20T08:57:05;30.40;99.90
46458;DHT22;32155;54.076;12.092;2023-08-20T08:59:31;31.20;99.90
46458;DHT22;32155;54.076;12.092;2023-08-20T09:01:56;32.60;99.90
46458;DHT22;32155;54.076;12.092;2023-08-20T09:04:22;35.50;99.90
46458;DHT22;32155;54.076;12.092;2023-08-20T09:06:48;34.20;99.90
46458;DHT22;32155;54.076;12.092;2023-08-20T09:09:16;33.30;99.90
46458;DHT22;32155;54.076;12.092;2023-08-20T09:11:45;33.00;99.90
46458;DHT22;32155;54.076;12.092;2023-08-20T09:14:29;32.50;99.90
46458;DHT22;32155;54.076;12.092;2023-08-20T09:17:00;32.90;99.90
46458;DHT22;32155;54.076;12.092;2023-08-20T09:19:29;31.60;99.90
46458;DHT22;32155;54.076;12.092;2023-08-20T09:21:58;30.80;99.90
46458;DHT22;32155;54.076;12.092;2023-08-20T09:24:39;30.30;99.90
46458;DHT22;32155;54.076;12.092;2023-08-20T09:27:07;30.60;99.90
46458;DHT22;32155;54.076;12.092;2023-08-20T09:32:22;29.10;99.90
46458;DHT22;32155;54.076;12.092;2023-08-20T09:34:48;28.30;99.90
46458;DHT22;32155;54.076;12.092;2023-08-20T09:37:22;28.50;99.90
46458;DHT22;32155;54.076;12.092;2023-08-20T09:39:48;28.20;99.90
46458;DHT22;32155;54.076;12.092;2023-08-20T09:42:14;27.30;99.90
46458;DHT22;32155;54.076;12.092;2023-08-20T09:44:40;26.90;99.90
46458;DHT22;32155;54.076;12.092;2023-08-20T09:47:09;26.80;99.90
46458;DHT22;32155;54.076;12.092;2023-08-20T09:49:39;26.70;99.90
46458;DHT22;32155;54.076;12.092;2023-08-20T09:52:09;26.90;99.90
46458;DHT22;32155;54.076;12.092;2023-08-20T09:54:37;26.70;99.90
46458;DHT22;32155;54.076;12.092;2023-08-20T09:57:11;26.60;99.90
46458;DHT22;32155;54.076;12.092;2023-08-20T09:59:38;26.50;99.90
46458;DHT22;32155;54.076;12.092;2023-08-20T10:02:05;28.30;99.90
46458;DHT22;32155;54.076;12.092;2023-08-20T10:04:30;31.10;99.90
46458;DHT22;32155;54.076;12.092;2023-08-20T10:06:57;33.70;99.90
46458;DHT22;32155;54.076;12.092;2023-08-20T10:09:26;33.50;99.90
46458;DHT22;32155;54.076;12.092;2023-08-20T10:11:52;32.40;99.90
46458;DHT22;32155;54.076;12.092;2023-08-20T10:14:18;33.80;99.90
46458;DHT22;32155;54.076;12.092;2023-08-20T10:16:44;36.10;99.90
46458;DHT22;32155;54.076;12.092;2023-08-20T10:19:15;39.10;99.90
46458;DHT22;32155;54.076;12.092;2023-08-20T10:21:43;38.80;98.90
46458;DHT22;32155;54.076;12.092;2023-08-20T10:24:18;39.30;97.40
46458;DHT22;32155;54.076;12.092;2023-08-20T10:26:46;39.70;93.70
46458;DHT22;32155;54.076;12.092;2023-08-20T10:32:01;43.20;85.20
46458;DHT22;32155;54.076;12.092;2023-08-20T10:34:33;44.60;76.30
46458;DHT22;32155;54.076;12.092;2023-08-20T10:37:12;44.40;72.90
46458;DHT22;32155;54.076;12.092;2023-08-20T10:39:38;44.30;70.10
46458;DHT22;32155;54.076;12.092;2023-08-20T10:45:22;45.50;66.30
46458;DHT22;32155;54.076;12.092;2023-08-20T10:47:43;46.00;62.30
46458;DHT22;32155;54.076;12.092;2023-08-20T10:50:10;46.00;62.10
46458;DHT22;32155;54.076;12.092;2023-08-20T10:52:39;45.50;59.30
46458;DHT22;32155;54.076;12.092;2023-08-20T10:55:06;46.00;59.60
46458;DHT22;32155;54.076;12.092;2023-08-20T10:57:33;46.70;58.10
46458;DHT22;32155;54.076;12.092;2023-08-20T11:00:01;46.80;57.60
46458;DHT22;32155;54.076;12.092;2023-08-20T11:02:30;47.20;55.70
46458;DHT22;32155;54.076;12.092;2023-08-20T11:07:45;46.70;53.90
46458;DHT22;32155;54.076;12.092;2023-08-20T11:10:13;47.60;53.70
46458;DHT22;32155;54.076;12.092;2023-08-20T11:12:38;48.10;51.60
46458;DHT22;32155;54.076;12.092;2023-08-20T11:15:04;47.20;53.30
46458;DHT22;32155;54.076;12.092;2023-08-20T11:20:17;44.60;55.90
46458;DHT22;32155;54.076;12.092;2023-08-20T11:22:47;45.10;53.50
46458;DHT22;32155;54.076;12.092;2023-08-20T11:25:13;45.10;53.30
46458;DHT22;32155;54.076;12.092;2023-08-20T11:27:42;46.30;53.10
46458;DHT22;32155;54.076;12.092;2023-08-20T11:32:54;48.10;51.60
46458;DHT22;32155;54.076;12.092;2023-08-20T11:35:20;46.70;50.40
46458;DHT22;32155;54.076;12.092;2023-08-20T11:37:46;47.40;50.80
46458;DHT22;32155;54.076;12.092;2023-08-20T11:40:16;45.80;50.00
46458;DHT22;32155;54.076;12.092;2023-08-20T11:42:42;46.50;50.60
46458;DHT22;32155;54.076;12.092;2023-08-20T11:45:10;47.40;50.00
46458;DHT22;32155;54.076;12.092;2023-08-20T11:47:41;48.00;48.80
46458;DHT22;32155;54.076;12.092;2023-08-20T11:50:07;48.00;48.20
46458;DHT22;32155;54.076;12.092;2023-08-20T11:52:33;47.10;47.90
46458;DHT22;32155;54.076;12.092;2023-08-20T11:55:02;48.00;46.90
46458;DHT22;32155;54.076;12.092;2023-08-20T11:57:28;47.80;48.60
46458;DHT22;32155;54.076;12.092;2023-08-20T11:59:54;48.10;46.90
46458;DHT22;32155;54.076;12.092;2023-08-20T12:02:26;48.10;47.00
46458;DHT22;32155;54.076;12.092;2023-08-20T12:05:00;47.80;47.20
46458;DHT22;32155;54.076;12.092;2023-08-20T12:07:26;47.00;47.20
46458;DHT22;32155;54.076;12.092;2023-08-20T12:09:54;47.50;47.80
46458;DHT22;32155;54.076;12.092;2023-08-20T12:12:25;48.60;46.80
46458;DHT22;32155;54.076;12.092;2023-08-20T12:14:50;48.50;46.20
46458;DHT22;32155;54.076;12.092;2023-08-20T12:17:19;47.80;46.00
46458;DHT22;32155;54.076;12.092;2023-08-20T12:19:47;47.20;47.00
46458;DHT22;32155;54.076;12.092;2023-08-20T12:22:12;47.70;46.60
46458;DHT22;32155;54.076;12.092;2023-08-20T12:24:38;48.60;45.50
46458;DHT22;32155;54.076;12.092;2023-08-20T12:27:03;47.60;46.20
46458;DHT22;32155;54.076;12.092;2023-08-20T12:29:29;47.00;46.40
46458;DHT22;32155;54.076;12.092;2023-08-20T12:31:55;47.40;46.30
46458;DHT22;32155;54.076;12.092;2023-08-20T12:34:21;47.10;46.50
46458;DHT22;32155;54.076;12.092;2023-08-20T12:36:49;46.00;47.00
46458;DHT22;32155;54.076;12.092;2023-08-20T12:39:15;46.80;46.80
46458;DHT22;32155;54.076;12.092;2023-08-20T12:41:40;46.60;47.20
46458;DHT22;32155;54.076;12.092;2023-08-20T12:44:06;46.30;47.00
46458;DHT22;32155;54.076;12.092;2023-08-20T12:46:34;46.00;46.80
46458;DHT22;32155;54.076;12.092;2023-08-20T12:49:00;46.50;47.50
46458;DHT22;32155;54.076;12.092;2023-08-20T12:51:34;47.20;46.90
46458;DHT22;32155;54.076;12.092;2023-08-20T12:53:59;47.20;47.20
46458;DHT22;32155;54.076;12.092;2023-08-20T12:56:25;46.40;47.30
46458;DHT22;32155;54.076;12.092;2023-08-20T12:58:55;46.30;47.10
46458;DHT22;32155;54.076;12.092;2023-08-20T13:01:21;46.60;47.10
46458;DHT22;32155;54.076;12.092;2023-08-20T13:03:46;46.00;47.00
46458;DHT22;32155;54.076;12.092;2023-08-20T13:06:13;46.30;47.00
46458;DHT22;32155;54.076;12.092;2023-08-20T13:08:39;45.50;47.40
46458;DHT22;32155;54.076;12.092;2023-08-20T13:11:07;45.50;46.70
46458;DHT22;32155;54.076;12.092;2023-08-20T13:13:47;44.50;47.50
46458;DHT22;32155;54.076;12.092;2023-08-20T13:16:13;44.50;48.60
46458;DHT22;32155;54.076;12.092;2023-08-20T13:18:41;44.00;47.20
46458;DHT22;32155;54.076;12.092;2023-08-20T13:21:07;42.90;48.20
46458;DHT22;32155;54.076;12.092;2023-08-20T13:23:35;43.50;48.70
46458;DHT22;32155;54.076;12.092;2023-08-20T13:26:00;42.80;48.90
46458;DHT22;32155;54.076;12.092;2023-08-20T13:28:28;43.20;49.80
46458;DHT22;32155;54.076;12.092;2023-08-20T13:30:54;43.20;49.90
46458;DHT22;32155;54.076;12.092;2023-08-20T13:33:21;42.90;51.30
46458;DHT22;32155;54.076;12.092;2023-08-20T13:35:47;42.40;51.00
46458;DHT22;32155;54.076;12.092;2023-08-20T13:38:15;42.30;51.30
46458;DHT22;32155;54.076;12.092;2023-08-20T13:40:42;42.00;51.60
46458;DHT22;32155;54.076;12.092;2023-08-20T13:43:08;40.30;52.60
46458;DHT22;32155;54.076;12.092;2023-08-20T13:45:34;38.00;55.40
46458;DHT22;32155;54.076;12.092;2023-08-20T13:48:03;36.40;58.00
46458;DHT22;32155;54.076;12.092;2023-08-20T13:50:29;35.10;59.80
46458;DHT22;32155;54.076;12.092;2023-08-20T13:52:59;34.80;60.50
46458;DHT22;32155;54.076;12.092;2023-08-20T13:55:24;34.00;62.10
46458;DHT22;32155;54.076;12.092;2023-08-20T13:57:55;34.50;62.30
46458;DHT22;32155;54.076;12.092;2023-08-20T14:02:50;36.10;59.50
46458;DHT22;32155;54.076;12.092;2023-08-20T14:05:15;37.30;58.00
46458;DHT22;32155;54.076;12.092;2023-08-20T14:07:41;37.60;57.60
46458;DHT22;32155;54.076;12.092;2023-08-20T14:10:07;38.20;57.20
46458;DHT22;32155;54.076;12.092;2023-08-20T14:12:33;38.20;56.60
46458;DHT22;32155;54.076;12.092;2023-08-20T14:15:00;38.20;56.80
46458;DHT22;32155;54.076;12.092;2023-08-20T14:17:25;38.50;56.10
46458;DHT22;32155;54.076;12.092;2023-08-20T14:19:51;38.40;56.00
46458;DHT22;32155;54.076;12.092;2023-08-20T14:22:17;38.20;56.00
46458;DHT22;32155;54.076;12.092;2023-08-20T14:24:43;37.60;56.60
46458;DHT22;32155;54.076;12.092;2023-08-20T14:27:08;37.40;57.20
46458;DHT22;32155;54.076;12.092;2023-08-20T14:29:34;38.20;56.30
46458;DHT22;32155;54.076;12.092;2023-08-20T14:32:00;38.30;56.50
46458;DHT22;32155;54.076;12.092;2023-08-20T14:34:25;38.80;56.30
46458;DHT22;32155;54.076;12.092;2023-08-20T14:36:51;38.70;55.90
46458;DHT22;32155;54.076;12.092;2023-08-20T14:39:16;38.50;56.00
46458;DHT22;32155;54.076;12.092;2023-08-20T14:41:42;38.20;57.00
46458;DHT22;32155;54.076;12.092;2023-08-20T14:44:08;37.90;57.00
46458;DHT22;32155;54.076;12.092;2023-08-20T14:46:33;37.70;57.50
46458;DHT22;32155;54.076;12.092;2023-08-20T14:49:01;36.50;58.20
46458;DHT22;32155;54.076;12.092;2023-08-20T14:51:27;34.90;61.20
46458;DHT22;32155;54.076;12.092;2023-08-20T14:53:52;33.20;63.20
46458;DHT22;32155;54.076;12.092;2023-08-20T14:56:24;32.30;66.30
46458;DHT22;32155;54.076;12.092;2023-08-20T14:58:50;31.40;68.70
46458;DHT22;32155;54.076;12.092;2023-08-20T15:01:15;30.60;72.00
46458;DHT22;32155;54.076;12.092;2023-08-20T15:03:42;30.20;72.90
46458;DHT22;32155;54.076;12.092;2023-08-20T15:06:07;29.80;73.80
46458;DHT22;32155;54.076;12.092;2023-08-20T15:08:33;29.40;75.70
46458;DHT22;32155;54.076;12.092;2023-08-20T15:10:59;29.10;75.70
46458;DHT22;32155;54.076;12.092;2023-08-20T15:13:26;28.90;76.80
46458;DHT22;32155;54.076;12.092;2023-08-20T15:15:53;28.80;78.60
46458;DHT22;32155;54.076;12.092;2023-08-20T15:18:23;28.60;77.90
46458;DHT22;32155;54.076;12.092;2023-08-20T15:20:57;28.60;79.30
46458;DHT22;32155;54.076;12.092;2023-08-20T15:23:23;28.50;79.10
46458;DHT22;32155;54.076;12.092;2023-08-20T15:25:50;28.50;79.40
46458;DHT22;32155;54.076;12.092;2023-08-20T15:28:16;28.30;80.30
46458;DHT22;32155;54.076;12.092;2023-08-20T15:33:30;28.10;82.20
46458;DHT22;32155;54.076;12.092;2023-08-20T15:35:59;28.10;83.60
46458;DHT22;32155;54.076;12.092;2023-08-20T15:38:26;27.90;82.20
46458;DHT22;32155;54.076;12.092;2023-08-20T15:40:53;27.80;84.70
46458;DHT22;32155;54.076;12.092;2023-08-20T15:43:18;27.60;84.20
46458;DHT22;32155;54.076;12.092;2023-08-20T15:45:44;27.30;87.00
46458;DHT22;32155;54.076;12.092;2023-08-20T15:48:12;27.20;87.00
46458;DHT22;32155;54.076;12.092;2023-08-20T15:50:40;27.10;88.80
46458;DHT22;32155;54.076;12.092;2023-08-20T15:53:05;27.10;89.60
46458;DHT22;32155;54.076;12.092;2023-08-20T15:55:34;27.10;88.30
46458;DHT22;32155;54.076;12.092;2023-08-20T15:57:59;27.10;88.90
46458;DHT22;32155;54.076;12.092;2023-08-20T16:00:28;27.10;89.20
